Time;durP1;ratioP1;P1;durP2;ratioP2;P2;SDS_P1;SDS_P2;PMS_P1;PMS_P2;Temp;Humidity;BMP_temperature;BMP_pressure;BME280_temperature;BME280_humidity;BME280_pressure;Samples;Min_cycle;Max_cycle;Signal;HPM_P1;HPM_P2
2022/12/09 00:02:19;;;;;;;34.23;14.13;;;5.80;44.60;;;;;;10275785;28;20235;-69
2022/12/09 00:07:24;;;;;;;74.73;14.90;;;5.80;44.50;;;;;;10264599;28;20966;-72
2022/12/09 00:12:27;;;;;;;14.33;12.83;;;5.80;44.30;;;;;;10258289;28;20658;-72
2022/12/09 00:17:31;;;;;;;15.43;13.77;;;5.80;44.40;;;;;;10258999;28;20227;-72
2022/12/09 00:22:35;;;;;;;17.63;14.10;;;5.70;44.60;;;;;;10260694;28;20228;-72
2022/12/09 00:27:39;;;;;;;19.10;15.20;;;5.70;44.90;;;;;;10259722;28;20311;-72
2022/12/09 00:32:42;;;;;;;12.87;11.40;;;5.70;44.80;;;;;;10259637;28;20232;-72
2022/12/09 00:37:47;;;;;;;20.40;13.73;;;5.80;44.80;;;;;;10261623;28;20239;-72
2022/12/09 00:42:50;;;;;;;15.77;14.07;;;5.70;44.50;;;;;;10265974;28;20223;-72
2022/12/09 00:47:53;;;;;;;15.27;13.33;;;5.70;44.60;;;;;;10262060;28;20231;-72
2022/12/09 00:52:58;;;;;;;18.40;13.90;;;5.70;44.70;;;;;;10261605;28;20597;-72
2022/12/09 00:58:01;;;;;;;68.67;13.77;;;5.70;44.80;;;;;;10263798;28;20231;-72
2022/12/09 01:03:04;;;;;;;15.30;12.60;;;5.70;44.60;;;;;;10262780;28;20220;-72
2022/12/09 01:08:11;;;;;;;30.80;12.10;;;5.70;44.50;;;;;;10257486;28;20256;-72
2022/12/09 01:13:15;;;;;;;12.07;10.93;;;5.60;44.10;;;;;;10264287;28;20227;-72
2022/12/09 01:18:19;;;;;;;18.97;11.30;;;5.50;44.10;;;;;;10257788;28;20797;-72
2022/12/09 01:23:24;;;;;;;24.90;11.50;;;5.40;44.10;;;;;;10265355;28;20236;-72
2022/12/09 01:28:27;;;;;;;35.77;11.23;;;5.30;44.10;;;;;;10259960;28;20227;-72
2022/12/09 01:33:30;;;;;;;19.83;11.83;;;5.10;43.80;;;;;;10259057;28;20223;-72
2022/12/09 01:38:35;;;;;;;12.03;10.77;;;5.00;44.00;;;;;;10256898;28;20238;-73
2022/12/09 01:43:39;;;;;;;12.63;10.63;;;4.90;44.50;;;;;;10257626;28;20321;-72
2022/12/09 01:48:46;;;;;;;13.10;10.87;;;4.90;44.70;;;;;;10259520;28;20246;-72
2022/12/09 01:53:52;;;;;;;13.10;11.80;;;4.90;45.00;;;;;;10262055;28;20231;-69
2022/12/09 01:58:58;;;;;;;16.13;12.10;;;4.90;45.00;;;;;;10260063;28;20254;-69
2022/12/09 02:04:02;;;;;;;16.13;10.93;;;5.00;45.10;;;;;;10260289;28;20648;-69
2022/12/09 02:09:07;;;;;;;11.87;10.77;;;5.00;45.00;;;;;;10259525;28;20319;-69
2022/12/09 02:14:18;;;;;;;14.40;11.77;;;5.00;45.00;;;;;;10255228;28;20319;-69
2022/12/09 02:19:33;;;;;;;11.90;10.70;;;5.00;45.00;;;;;;10258709;28;20652;-69
2022/12/09 02:24:42;;;;;;;11.63;10.53;;;5.10;45.10;;;;;;10257046;28;20620;-69
2022/12/09 02:30:05;;;;;;;13.00;11.80;;;5.10;44.90;;;;;;10258710;28;20221;-69
2022/12/09 02:35:14;;;;;;;13.03;11.73;;;5.10;44.90;;;;;;10263097;28;20232;-69
2022/12/09 02:40:23;;;;;;;14.67;12.53;;;5.20;44.70;;;;;;10258404;28;20248;-71
2022/12/09 02:45:29;;;;;;;12.93;11.70;;;5.20;44.60;;;;;;10263278;28;20311;-71
2022/12/09 02:50:38;;;;;;;13.87;12.43;;;5.10;44.50;;;;;;10257263;28;20259;-71
2022/12/09 02:55:45;;;;;;;14.57;13.20;;;5.10;44.70;;;;;;10263472;28;20230;-71
2022/12/09 03:00:48;;;;;;;14.00;12.60;;;5.10;44.50;;;;;;10261477;28;20274;-71
2022/12/09 03:06:00;;;;;;;12.17;10.97;;;5.10;44.40;;;;;;10264780;28;20594;-72
2022/12/09 03:11:06;;;;;;;14.23;12.83;;;5.10;44.70;;;;;;10269381;28;20243;-71
2022/12/09 03:16:16;;;;;;;13.60;12.30;;;5.10;44.60;;;;;;10268528;28;20224;-70
2022/12/09 03:21:23;;;;;;;11.80;10.60;;;5.10;44.60;;;;;;10269881;28;20664;-70
2022/12/09 03:26:30;;;;;;;12.87;11.57;;;5.10;44.70;;;;;;10270450;28;20723;-70
2022/12/09 03:31:36;;;;;;;12.40;11.23;;;5.10;44.60;;;;;;10271430;28;20320;-70
2022/12/09 03:36:43;;;;;;;13.33;12.13;;;5.20;44.60;;;;;;10266243;28;20224;-70
2022/12/09 03:41:50;;;;;;;11.47;10.37;;;5.20;44.60;;;;;;10268954;28;20233;-70
2022/12/09 03:46:53;;;;;;;12.50;11.37;;;5.20;44.50;;;;;;10266731;28;20231;-71
2022/12/09 03:52:04;;;;;;;13.17;11.93;;;5.20;44.40;;;;;;10268260;28;20330;-70
2022/12/09 03:57:11;;;;;;;14.13;12.73;;;5.10;44.30;;;;;;10270162;28;20688;-70
2022/12/09 04:02:21;;;;;;;13.53;12.23;;;5.10;44.30;;;;;;10266983;28;20311;-70
2022/12/09 04:07:27;;;;;;;12.97;11.77;;;5.10;44.30;;;;;;10269163;28;20228;-70
2022/12/09 04:12:30;;;;;;;13.23;11.93;;;5.10;44.30;;;;;;10266419;28;20227;-70
2022/12/09 04:17:33;;;;;;;13.23;11.93;;;5.10;44.40;;;;;;10268753;28;20228;-70
2022/12/09 04:22:38;;;;;;;13.60;12.13;;;5.00;44.30;;;;;;10272653;28;20229;-70
2022/12/09 04:27:41;;;;;;;13.63;12.23;;;5.00;44.40;;;;;;10264356;28;20232;-70
2022/12/09 04:32:45;;;;;;;12.63;11.40;;;5.00;44.50;;;;;;10272942;28;20341;-70
2022/12/09 04:37:50;;;;;;;13.63;12.23;;;5.00;44.60;;;;;;10268989;28;20228;-70
2022/12/09 04:42:53;;;;;;;13.90;12.50;;;5.00;44.70;;;;;;10264670;28;20223;-70
2022/12/09 04:47:58;;;;;;;13.30;12.03;;;5.10;44.80;;;;;;10265931;28;20231;-70
2022/12/09 04:53:03;;;;;;;15.10;13.50;;;5.10;44.90;;;;;;10276608;28;20214;-70
2022/12/09 04:58:07;;;;;;;14.60;13.07;;;5.10;44.90;;;;;;10258855;28;20233;-70
2022/12/09 05:03:10;;;;;;;19.50;17.47;;;5.10;44.70;;;;;;10274619;28;20625;-70
2022/12/09 05:08:15;;;;;;;16.00;14.30;;;5.20;44.60;;;;;;10268206;28;20286;-70
2022/12/09 05:13:18;;;;;;;15.53;13.93;;;5.10;44.50;;;;;;10261623;28;20251;-70
2022/12/09 05:18:22;;;;;;;16.10;14.40;;;5.10;44.50;;;;;;10264915;28;20246;-70
2022/12/09 05:23:27;;;;;;;16.37;14.67;;;5.10;44.70;;;;;;10274747;28;21020;-70
2022/12/09 05:28:31;;;;;;;20.77;17.43;;;5.10;44.70;;;;;;10269131;28;20224;-70
2022/12/09 05:33:35;;;;;;;17.47;15.60;;;5.10;44.70;;;;;;10264361;28;20228;-70
2022/12/09 05:38:40;;;;;;;18.17;15.97;;;5.10;44.80;;;;;;10275896;28;20257;-70
2022/12/09 05:43:44;;;;;;;18.77;15.93;;;5.10;45.00;;;;;;10276201;28;20227;-70
2022/12/09 05:48:48;;;;;;;18.67;16.70;;;5.10;44.80;;;;;;10266870;28;20228;-70
2022/12/09 05:53:54;;;;;;;20.93;17.83;;;5.10;44.90;;;;;;10264376;28;20353;-70
2022/12/09 05:58:58;;;;;;;20.43;18.27;;;5.10;45.00;;;;;;10261161;28;20227;-70
2022/12/09 06:04:02;;;;;;;20.77;18.47;;;5.20;44.90;;;;;;10264282;28;20231;-70
2022/12/09 06:09:10;;;;;;;21.10;18.53;;;5.20;44.80;;;;;;10261715;28;20775;-69
2022/12/09 06:14:14;;;;;;;19.40;17.30;;;5.20;45.00;;;;;;10264425;28;20380;-69
2022/12/09 06:19:17;;;;;;;19.03;16.40;;;5.10;45.00;;;;;;10261974;28;20278;-69
2022/12/09 06:24:22;;;;;;;20.10;17.13;;;5.20;45.10;;;;;;10263195;28;20228;-70
2022/12/09 06:29:25;;;;;;;20.73;18.17;;;5.20;45.20;;;;;;10265695;28;20334;-70
2022/12/09 06:34:29;;;;;;;21.77;18.20;;;5.20;45.40;;;;;;10267074;28;20235;-69
2022/12/09 06:39:34;;;;;;;19.83;17.57;;;5.20;45.20;;;;;;10277129;28;20306;-69
2022/12/09 06:44:38;;;;;;;22.60;19.10;;;5.30;45.20;;;;;;10274755;28;20259;-74
2022/12/09 06:49:42;;;;;;;21.57;19.30;;;5.30;45.10;;;;;;10284514;28;20314;-73
2022/12/09 06:54:47;;;;;;;24.50;20.07;;;5.30;44.90;;;;;;10288952;28;20275;-70
2022/12/09 06:59:50;;;;;;;25.27;20.67;;;5.20;44.90;;;;;;10282884;28;20235;-71
2022/12/09 07:04:54;;;;;;;23.33;20.27;;;5.20;44.90;;;;;;10273100;28;20723;-70
2022/12/09 07:10:01;;;;;;;23.47;20.17;;;5.20;44.90;;;;;;10282651;28;20633;-72
2022/12/09 07:15:06;;;;;;;22.43;19.00;;;5.20;45.00;;;;;;10286932;28;20584;-72
2022/12/09 07:20:10;;;;;;;24.00;20.83;;;5.20;45.00;;;;;;10282382;28;20232;-72
2022/12/09 07:25:15;;;;;;;24.23;21.27;;;5.10;45.00;;;;;;10276166;28;20795;-73
2022/12/09 07:30:19;;;;;;;25.07;20.53;;;5.10;45.10;;;;;;10270885;28;20263;-70
2022/12/09 07:35:22;;;;;;;23.03;20.50;;;5.10;45.10;;;;;;10268178;28;20236;-68
2022/12/09 07:40:26;;;;;;;21.70;19.40;;;5.20;45.20;;;;;;10264400;28;20887;-70
2022/12/09 07:45:30;;;;;;;23.33;20.83;;;5.20;45.40;;;;;;10268848;28;20752;-70
2022/12/09 07:50:33;;;;;;;22.80;20.27;;;5.10;45.20;;;;;;10260391;28;20792;-70
2022/12/09 07:55:38;;;;;;;22.37;19.63;;;5.10;45.20;;;;;;10276142;28;20290;-70
2022/12/09 08:00:41;;;;;;;22.27;19.80;;;5.20;45.40;;;;;;10267132;28;20231;-70
2022/12/09 08:05:48;;;;;;;22.20;19.70;;;5.20;45.40;;;;;;10274016;28;20267;-70
2022/12/09 08:10:53;;;;;;;23.43;20.03;;;5.20;45.50;;;;;;10277541;28;20226;-70
2022/12/09 08:16:02;;;;;;;24.90;21.40;;;5.20;45.50;;;;;;10278779;28;20733;-70
2022/12/09 08:21:07;;;;;;;23.47;20.83;;;5.20;45.60;;;;;;10278830;28;20231;-70
2022/12/09 08:26:14;;;;;;;24.40;20.80;;;5.20;45.40;;;;;;10278739;28;20242;-70
2022/12/09 08:31:19;;;;;;;22.50;20.10;;;5.20;45.50;;;;;;10276410;28;20236;-70
2022/12/09 08:36:26;;;;;;;22.53;19.37;;;5.20;45.50;;;;;;10274329;28;20621;-70
2022/12/09 08:41:36;;;;;;;22.63;19.47;;;5.20;45.60;;;;;;10268622;28;20234;-70
2022/12/09 08:46:43;;;;;;;22.07;18.73;;;5.30;45.80;;;;;;10279056;28;20605;-73
2022/12/09 08:51:47;;;;;;;20.93;18.70;;;5.30;45.80;;;;;;10277401;28;20242;-73
2022/12/09 08:56:54;;;;;;;20.93;18.57;;;5.40;45.90;;;;;;10274192;28;20230;-72
2022/12/09 09:01:58;;;;;;;20.20;18.07;;;5.40;45.90;;;;;;10274509;28;20756;-69
2022/12/09 09:07:02;;;;;;;20.13;18.03;;;5.40;45.60;;;;;;10268243;28;20669;-69
2022/12/09 09:12:08;;;;;;;19.20;17.20;;;5.50;45.70;;;;;;10277649;28;20228;-72
2022/12/09 09:17:11;;;;;;;20.80;18.70;;;5.50;46.20;;;;;;10269218;28;20321;-71
2022/12/09 09:22:15;;;;;;;20.60;18.53;;;5.60;46.00;;;;;;10282364;28;20227;-71
2022/12/09 09:27:20;;;;;;;21.60;18.47;;;5.60;46.50;;;;;;10281578;28;20239;-71
2022/12/09 09:32:23;;;;;;;20.87;18.67;;;5.60;45.60;;;;;;10274935;28;20782;-72
2022/12/09 09:37:28;;;;;;;21.57;19.37;;;5.70;45.50;;;;;;10281795;28;20230;-71
2022/12/09 09:42:37;;;;;;;20.33;18.13;;;5.70;45.40;;;;;;10276221;28;20231;-72
2022/12/09 09:47:44;;;;;;;18.70;16.87;;;5.70;45.40;;;;;;10267697;28;20239;-71
2022/12/09 09:52:52;;;;;;;20.83;18.63;;;5.70;45.40;;;;;;10261001;28;20270;-71
2022/12/09 09:58:02;;;;;;;19.23;17.27;;;5.70;45.40;;;;;;10264788;28;20287;-71
2022/12/09 10:03:11;;;;;;;19.53;16.60;;;5.70;45.40;;;;;;10263524;28;20711;-72
2022/12/09 10:08:33;;;;;;;16.80;15.07;;;5.70;45.10;;;;;;10269623;28;20318;-73
2022/12/09 10:13:47;;;;;;;18.87;16.93;;;5.70;45.20;;;;;;10277678;28;20226;-73
2022/12/09 10:19:06;;;;;;;20.43;18.23;;;5.60;45.20;;;;;;10269783;28;20262;-68
2022/12/09 10:24:19;;;;;;;17.40;15.53;;;5.60;45.40;;;;;;10279700;28;20262;-68
2022/12/09 10:29:46;;;;;;;18.80;15.50;;;5.60;45.60;;;;;;10282948;28;20282;-68
2022/12/09 10:34:49;;;;;;;18.10;15.60;;;5.60;45.60;;;;;;10264733;28;20596;-69
2022/12/09 10:39:59;;;;;;;17.77;15.70;;;5.60;45.50;;;;;;10273933;28;20617;-73
2022/12/09 10:45:08;;;;;;;17.90;15.90;;;5.70;45.60;;;;;;10275219;28;20216;-71
2022/12/09 10:50:26;;;;;;;18.20;15.50;;;5.70;45.70;;;;;;10270548;28;20772;-71
2022/12/09 10:55:34;;;;;;;16.73;14.67;;;5.70;45.60;;;;;;10275076;28;20299;-71
2022/12/09 11:00:39;;;;;;;19.43;16.10;;;5.80;45.60;;;;;;10271353;28;20228;-71
2022/12/09 11:05:42;;;;;;;16.60;13.90;;;5.80;45.80;;;;;;10273923;28;20258;-72
2022/12/09 11:10:49;;;;;;;19.87;15.93;;;5.90;45.40;;;;;;10275185;28;20248;-71
2022/12/09 11:15:58;;;;;;;20.23;17.33;;;5.90;45.30;;;;;;10272122;28;20224;-69
2022/12/09 11:21:04;;;;;;;20.40;15.37;;;5.90;45.30;;;;;;10274131;28;20230;-69
2022/12/09 11:26:23;;;;;;;20.30;16.00;;;5.80;45.40;;;;;;10280775;28;20661;-71
2022/12/09 11:31:28;;;;;;;22.83;17.10;;;5.80;46.00;;;;;;10269387;28;20248;-71
2022/12/09 11:36:41;;;;;;;22.13;18.00;;;5.90;46.20;;;;;;10273714;28;20227;-69
2022/12/09 11:47:27;;;;;;;17.80;15.57;;;6.00;45.80;;;;;;10276252;28;20228;-69
2022/12/09 11:52:31;;;;;;;18.33;15.10;;;6.00;45.70;;;;;;10277456;28;20224;-71
2022/12/09 11:57:37;;;;;;;19.40;16.50;;;6.00;45.40;;;;;;10273433;28;20275;-70
2022/12/09 12:02:46;;;;;;;19.17;16.87;;;6.00;45.50;;;;;;10275950;28;20220;-72
2022/12/09 12:07:58;;;;;;;21.13;17.80;;;6.10;45.50;;;;;;10268613;28;20261;-71
2022/12/09 12:13:08;;;;;;;23.40;18.60;;;6.10;45.90;;;;;;10267869;28;20228;-71
2022/12/09 12:18:18;;;;;;;21.03;17.80;;;6.10;46.10;;;;;;10279545;28;20712;-70
2022/12/09 12:23:39;;;;;;;22.03;17.83;;;6.20;45.80;;;;;;10276868;28;20242;-71
2022/12/09 12:28:57;;;;;;;19.33;17.20;;;6.20;45.50;;;;;;10285794;28;20239;-72
2022/12/09 12:34:18;;;;;;;21.17;17.10;;;6.20;45.50;;;;;;10276376;28;20250;-72
2022/12/09 12:39:44;;;;;;;19.10;16.53;;;6.20;45.30;;;;;;10278228;28;20650;-72
2022/12/09 12:50:46;;;;;;;19.70;16.87;;;6.30;45.30;;;;;;10276682;28;20232;-72
2022/12/09 12:55:57;;;;;;;18.63;15.83;;;6.20;45.30;;;;;;10273674;28;20224;-71
2022/12/09 13:01:05;;;;;;;17.97;15.90;;;6.30;45.30;;;;;;10275389;28;20257;-71
2022/12/09 13:06:14;;;;;;;18.30;15.47;;;6.10;45.30;;;;;;10278186;28;20227;-71
2022/12/09 13:11:23;;;;;;;17.70;15.53;;;6.30;45.50;;;;;;10271801;28;20712;-71
2022/12/09 13:16:29;;;;;;;18.27;16.33;;;6.30;45.60;;;;;;10274766;28;21088;-71
2022/12/09 13:21:34;;;;;;;18.90;16.57;;;6.30;45.40;;;;;;10283417;28;20229;-69
2022/12/09 13:26:46;;;;;;;16.77;14.83;;;6.30;45.50;;;;;;10280851;28;20248;-73
2022/12/09 13:31:59;;;;;;;18.67;15.70;;;6.40;45.50;;;;;;10270655;28;20278;-73
2022/12/09 13:37:03;;;;;;;17.50;15.63;;;6.40;45.50;;;;;;10265966;28;20631;-71
2022/12/09 13:42:55;;;;;;;17.17;15.37;;;6.40;45.40;;;;;;10280556;28;20888;-72
2022/12/09 13:48:02;;;;;;;17.90;15.70;;;6.40;45.60;;;;;;10275698;28;20238;-73
2022/12/09 13:53:24;;;;;;;21.77;19.47;;;6.40;45.50;;;;;;10265526;28;20228;-73
2022/12/09 13:58:50;;;;;;;18.07;15.63;;;6.40;45.60;;;;;;10276286;28;20255;-68
2022/12/09 14:04:02;;;;;;;17.93;16.10;;;6.40;45.70;;;;;;10267358;28;20223;-68
2022/12/09 14:09:22;;;;;;;19.23;16.37;;;6.40;45.50;;;;;;10269599;28;21143;-68
2022/12/09 14:14:57;;;;;;;17.27;15.47;;;6.40;45.60;;;;;;10277370;28;20738;-68
2022/12/09 14:20:04;;;;;;;17.53;15.30;;;6.40;45.50;;;;;;10273595;28;20230;-68
2022/12/09 14:25:45;;;;;;;16.87;14.93;;;6.40;45.40;;;;;;10267739;28;20230;-68
2022/12/09 14:30:58;;;;;;;15.47;13.83;;;6.30;45.70;;;;;;10268964;28;20223;-68
2022/12/09 14:36:23;;;;;;;16.47;14.67;;;6.30;45.70;;;;;;10262805;28;20227;-68
2022/12/09 14:41:31;;;;;;;16.77;14.87;;;6.30;45.80;;;;;;10261909;28;20708;-71
2022/12/09 14:46:37;;;;;;;16.37;14.67;;;6.30;45.70;;;;;;10269210;28;20246;-71
2022/12/09 14:51:46;;;;;;;14.67;13.10;;;6.40;45.80;;;;;;10268278;28;20256;-74
2022/12/09 14:56:51;;;;;;;14.80;13.27;;;6.30;46.00;;;;;;10262484;28;20220;-73
2022/12/09 15:01:58;;;;;;;14.33;12.83;;;6.40;45.80;;;;;;10267887;28;20235;-71
2022/12/09 15:07:09;;;;;;;15.30;13.70;;;6.40;45.80;;;;;;10272234;28;20239;-68
2022/12/09 15:12:12;;;;;;;13.77;12.40;;;6.40;45.80;;;;;;10293128;28;20278;-68
2022/12/09 15:17:24;;;;;;;16.83;14.40;;;6.40;45.70;;;;;;10294156;28;20228;-68
2022/12/09 15:22:30;;;;;;;13.90;12.47;;;6.40;45.80;;;;;;10291408;28;20238;-68
2022/12/09 15:27:33;;;;;;;14.20;12.70;;;6.40;45.50;;;;;;10264035;28;20593;-68
2022/12/09 15:32:39;;;;;;;14.23;12.73;;;6.30;45.40;;;;;;10251954;28;20253;-68
2022/12/09 15:37:43;;;;;;;12.53;11.27;;;6.30;45.60;;;;;;10279412;28;20228;-68
2022/12/09 15:42:49;;;;;;;13.03;11.73;;;6.30;45.50;;;;;;10281715;28;20243;-68
2022/12/09 15:47:57;;;;;;;12.30;11.10;;;6.30;45.50;;;;;;10277870;28;20325;-71
2022/12/09 15:53:06;;;;;;;11.87;10.70;;;6.20;45.40;;;;;;10283262;28;20234;-68
2022/12/09 15:58:12;;;;;;;12.57;11.33;;;6.20;45.60;;;;;;10287922;28;20226;-68
2022/12/09 16:03:19;;;;;;;12.00;10.80;;;6.20;45.40;;;;;;10292979;28;20251;-68
2022/12/09 16:08:30;;;;;;;12.07;10.87;;;6.20;45.50;;;;;;10284126;28;20639;-68
2022/12/09 16:13:33;;;;;;;11.53;10.33;;;6.20;45.50;;;;;;10283321;28;20282;-73
2022/12/09 16:18:48;;;;;;;12.57;11.27;;;6.20;45.50;;;;;;10271136;28;20629;-72
2022/12/09 16:23:54;;;;;;;12.13;10.30;;;6.20;45.50;;;;;;10259747;28;20229;-73
2022/12/09 16:29:00;;;;;;;12.97;10.70;;;6.20;45.40;;;;;;10270795;28;20220;-68
2022/12/09 16:34:05;;;;;;;12.67;11.17;;;6.20;45.30;;;;;;10276346;28;20228;-72
2022/12/09 16:39:36;;;;;;;12.80;11.50;;;6.20;45.30;;;;;;10274776;28;20275;-72
2022/12/09 16:44:40;;;;;;;12.37;11.20;;;6.20;45.50;;;;;;10243376;28;20223;-73
2022/12/09 16:49:46;;;;;;;12.33;11.10;;;6.20;45.30;;;;;;10272356;28;20232;-68
2022/12/09 16:54:50;;;;;;;13.17;11.80;;;6.10;45.30;;;;;;10275851;28;20225;-68
2022/12/09 16:59:53;;;;;;;12.90;11.70;;;6.10;45.30;;;;;;10270117;28;20239;-70
2022/12/09 17:04:59;;;;;;;12.27;11.00;;;6.10;45.10;;;;;;10266371;28;20224;-73
2022/12/09 17:10:02;;;;;;;12.70;11.13;;;6.10;45.20;;;;;;10271991;28;20239;-72
2022/12/09 17:15:06;;;;;;;13.23;11.83;;;6.10;45.90;;;;;;10279514;28;20271;-69
2022/12/09 17:20:11;;;;;;;12.37;11.13;;;6.10;45.10;;;;;;10269635;28;20242;-68
2022/12/09 17:25:14;;;;;;;12.77;11.57;;;6.00;45.10;;;;;;10271842;28;20243;-68
2022/12/09 17:30:17;;;;;;;13.20;11.90;;;6.00;45.00;;;;;;10271793;28;20582;-68
2022/12/09 17:35:22;;;;;;;12.80;11.50;;;6.00;45.10;;;;;;10274583;28;20228;-68
2022/12/09 17:40:25;;;;;;;12.90;11.57;;;6.00;45.10;;;;;;10274650;28;20228;-68
2022/12/09 17:45:28;;;;;;;12.37;11.17;;;6.00;44.90;;;;;;10287540;28;20254;-69
2022/12/09 17:50:32;;;;;;;12.57;11.23;;;6.00;44.80;;;;;;10280345;28;20244;-68
2022/12/09 17:55:38;;;;;;;12.40;10.70;;;6.00;44.90;;;;;;10263753;28;20302;-70
2022/12/09 18:00:41;;;;;;;13.57;11.67;;;6.00;45.00;;;;;;10258279;28;20281;-70
2022/12/09 18:05:46;;;;;;;13.40;12.07;;;6.00;45.10;;;;;;10267863;28;20751;-68
2022/12/09 18:10:49;;;;;;;14.03;12.67;;;6.00;45.80;;;;;;10264518;28;20286;-69
2022/12/09 18:15:52;;;;;;;11.90;10.67;;;6.00;45.20;;;;;;10268047;28;20223;-68
2022/12/09 18:21:01;;;;;;;12.30;10.97;;;6.00;45.10;;;;;;10265263;28;20278;-68
2022/12/09 18:26:06;;;;;;;12.30;11.13;;;6.00;45.10;;;;;;10271793;28;20252;-72
2022/12/09 18:31:10;;;;;;;13.40;11.97;;;6.10;45.20;;;;;;10279466;28;20656;-73
2022/12/09 18:36:18;;;;;;;12.83;11.50;;;6.10;45.10;;;;;;10284583;28;20224;-72
2022/12/09 18:41:22;;;;;;;13.20;10.77;;;6.10;45.20;;;;;;10283161;28;20708;-73
2022/12/09 18:46:28;;;;;;;11.43;10.27;;;6.10;44.90;;;;;;10293201;28;20215;-73
2022/12/09 18:51:34;;;;;;;12.47;11.17;;;6.10;44.90;;;;;;10285372;28;20604;-73
2022/12/09 18:56:37;;;;;;;12.87;11.57;;;6.10;44.80;;;;;;10289473;28;20817;-69
2022/12/09 19:01:42;;;;;;;12.90;11.50;;;6.10;45.00;;;;;;10293810;28;20234;-69
2022/12/09 19:06:48;;;;;;;14.47;11.50;;;6.10;44.90;;;;;;10291985;28;20232;-69
2022/12/09 19:11:52;;;;;;;12.70;11.43;;;6.10;44.80;;;;;;10295139;28;20314;-69
2022/12/09 19:16:56;;;;;;;12.03;10.93;;;6.00;44.60;;;;;;10297075;28;20625;-69
2022/12/09 19:22:02;;;;;;;11.63;10.50;;;6.00;44.80;;;;;;10294780;28;20228;-68
2022/12/09 19:27:05;;;;;;;12.23;10.93;;;6.00;45.00;;;;;;10296324;28;20251;-69
2022/12/09 19:32:09;;;;;;;10.33;9.20;;;6.00;44.90;;;;;;10298086;28;20240;-69
2022/12/09 19:37:33;;;;;;;13.07;11.77;;;6.00;45.00;;;;;;10288018;28;20711;-69
2022/12/09 19:42:38;;;;;;;11.60;10.50;;;6.00;44.80;;;;;;10284555;28;20227;-69
2022/12/09 19:47:41;;;;;;;13.13;11.80;;;6.00;45.00;;;;;;10277295;28;20596;-69
2022/12/09 19:52:46;;;;;;;15.67;14.00;;;6.00;44.80;;;;;;10284898;28;20788;-69
2022/12/09 19:57:49;;;;;;;42.43;26.37;;;6.00;44.80;;;;;;10280928;28;20259;-69
2022/12/09 20:02:52;;;;;;;34.13;27.80;;;5.90;44.80;;;;;;10280046;28;20227;-69
2022/12/09 20:07:57;;;;;;;16.03;13.60;;;5.90;45.00;;;;;;10286587;28;20226;-68
2022/12/09 20:13:00;;;;;;;15.00;13.50;;;5.90;45.10;;;;;;10283557;28;20307;-69
2022/12/09 20:18:03;;;;;;;14.27;12.80;;;5.90;45.10;;;;;;10289059;28;20596;-69
2022/12/09 20:23:08;;;;;;;13.40;11.93;;;5.90;45.00;;;;;;10284844;28;20226;-69
2022/12/09 20:28:11;;;;;;;14.53;13.13;;;5.90;44.90;;;;;;10291198;28;20223;-69
2022/12/09 20:33:15;;;;;;;13.70;12.33;;;5.90;45.00;;;;;;10291504;28;20223;-68
2022/12/09 20:38:20;;;;;;;13.57;12.17;;;5.90;45.10;;;;;;10292195;28;20806;-69
2022/12/09 20:43:23;;;;;;;13.40;12.00;;;5.90;45.00;;;;;;10293806;28;20236;-69
2022/12/09 20:48:26;;;;;;;14.03;12.53;;;6.00;45.20;;;;;;10292789;28;20231;-69
2022/12/09 20:53:30;;;;;;;13.80;12.40;;;6.00;45.00;;;;;;10289814;28;20233;-69
2022/12/09 20:58:35;;;;;;;13.50;12.13;;;6.00;44.90;;;;;;10280518;28;20228;-69
2022/12/09 21:03:38;;;;;;;10.73;9.67;;;6.00;44.90;;;;;;10288814;28;20236;-69
2022/12/09 21:08:43;;;;;;;10.87;9.77;;;6.00;45.00;;;;;;10294951;28;20237;-69
2022/12/09 21:13:48;;;;;;;12.80;11.50;;;6.00;45.20;;;;;;10288526;28;20222;-69
2022/12/09 21:18:53;;;;;;;13.17;11.87;;;6.00;45.20;;;;;;10287361;28;20234;-68
2022/12/09 21:24:04;;;;;;;13.20;11.90;;;6.00;45.30;;;;;;10285285;28;20221;-69
2022/12/09 21:29:09;;;;;;;12.93;11.67;;;6.10;45.40;;;;;;10284039;28;20289;-69
2022/12/09 21:34:12;;;;;;;12.50;11.20;;;6.10;45.30;;;;;;10283579;28;20832;-69
2022/12/09 21:39:19;;;;;;;13.63;12.23;;;6.10;45.20;;;;;;10275742;28;20231;-69
2022/12/09 21:44:24;;;;;;;12.40;11.10;;;6.10;45.10;;;;;;10284506;28;20239;-69
2022/12/09 21:49:28;;;;;;;13.87;12.10;;;6.10;45.00;;;;;;10277745;28;20251;-69
2022/12/09 21:54:33;;;;;;;12.70;11.33;;;6.10;45.10;;;;;;10280226;28;20282;-69
2022/12/09 21:59:36;;;;;;;13.10;11.80;;;6.10;45.30;;;;;;10274316;28;20235;-69
2022/12/09 22:04:39;;;;;;;13.27;11.87;;;6.10;45.30;;;;;;10287748;28;20227;-69
2022/12/09 22:09:44;;;;;;;12.13;10.87;;;6.10;45.30;;;;;;10282496;28;20235;-69
2022/12/09 22:14:47;;;;;;;13.70;12.30;;;6.10;45.30;;;;;;10285517;28;20232;-69
2022/12/09 22:19:51;;;;;;;12.83;11.57;;;6.10;45.20;;;;;;10281249;28;20223;-69
2022/12/09 22:25:15;;;;;;;12.57;11.37;;;6.10;45.30;;;;;;10279396;28;20574;-69
2022/12/09 22:30:19;;;;;;;12.97;11.70;;;6.10;45.20;;;;;;10288107;28;20255;-69
2022/12/09 22:35:22;;;;;;;13.40;12.00;;;6.20;45.30;;;;;;10274807;28;20251;-69
2022/12/09 22:40:26;;;;;;;13.17;11.83;;;6.20;45.30;;;;;;10277071;28;20736;-69
2022/12/09 22:45:30;;;;;;;12.53;11.30;;;6.20;45.20;;;;;;10275450;28;20227;-69
2022/12/09 22:50:35;;;;;;;13.73;12.30;;;6.20;45.20;;;;;;10275333;28;20231;-69
2022/12/09 22:55:45;;;;;;;12.43;11.23;;;6.20;45.20;;;;;;10278889;28;20231;-69
2022/12/09 23:00:49;;;;;;;13.73;12.33;;;6.20;45.10;;;;;;10274904;28;20236;-69
2022/12/09 23:05:52;;;;;;;13.90;11.20;;;6.20;45.10;;;;;;10271094;28;20231;-69
2022/12/09 23:11:00;;;;;;;11.50;10.40;;;6.20;45.20;;;;;;10276714;28;20231;-69
2022/12/09 23:16:05;;;;;;;14.43;12.20;;;6.20;45.10;;;;;;10285002;28;20705;-69
2022/12/09 23:21:10;;;;;;;13.60;12.20;;;6.30;45.20;;;;;;10275924;28;20319;-70
2022/12/09 23:26:17;;;;;;;13.67;12.27;;;6.20;45.10;;;;;;10279756;28;20223;-69
2022/12/09 23:31:22;;;;;;;13.13;11.83;;;6.20;45.10;;;;;;10276787;28;20232;-69
2022/12/09 23:36:29;;;;;;;13.83;12.40;;;6.30;45.10;;;;;;10275771;28;20290;-70
2022/12/09 23:41:34;;;;;;;14.30;12.80;;;6.20;44.90;;;;;;10273612;28;20258;-69
2022/12/09 23:46:37;;;;;;;14.23;12.77;;;6.20;44.90;;;;;;10270517;28;20223;-69
2022/12/09 23:51:43;;;;;;;12.90;11.53;;;6.20;45.00;;;;;;10282364;28;20603;-68
2022/12/09 23:56:50;;;;;;;13.33;11.93;;;6.20;45.10;;;;;;10271870;28;20220;-69
